RRR4172 LIRF-LBSF
Flight info
| Callsign | RRR4172 |
|---|---|
| Flight time | N/A |
| Altitude | 30000 |
| Route | OKUNO DCT ATRUP DCT ERPOG DCT RIVAM/N0357F310 DCT ORAKA DCT BALHA DCT MOKUN DCT RAMAP DCT NISVA |
| Aircraft | A400/H-SDE2E3FGHIJ4J5M1RWXYZ/L4T |
Departure
| Time | 2026-05-06 17:44 |
|---|---|
| Airport | Rome–Fiumicino Leonardo da Vinci International Airport (LIRF) |
Arrival
| Time | N/A |
|---|---|
| Airport | Sofia Airport (LBSF) |
| Time | Latitude | Longitude | Altitude | Speed | Heading |
|---|---|---|---|---|---|
| 2026-05-06 17:28 | 41.79884 | 12.26496 | 23 ft | 0 kts | 70° |
| 2026-05-06 17:36 | 41.79885 | 12.26500 | 23 ft | 1 kts | 70° |
| 2026-05-06 17:36 | 41.79889 | 12.26517 | 25 ft | 3 kts | 70° |
| 2026-05-06 17:36 | 41.79899 | 12.26547 | 27 ft | 4 kts | 56° |
| 2026-05-06 17:36 | 41.79920 | 12.26546 | 23 ft | 4 kts | 328° |
| 2026-05-06 17:37 | 41.79954 | 12.26527 | 23 ft | 7 kts | 339° |
| 2026-05-06 17:37 | 41.80013 | 12.26498 | 23 ft | 10 kts | 341° |
| 2026-05-06 17:37 | 41.80086 | 12.26463 | 26 ft | 12 kts | 341° |
| 2026-05-06 17:37 | 41.80140 | 12.26414 | 23 ft | 7 kts | 273° |
| 2026-05-06 17:38 | 41.80120 | 12.26350 | 24 ft | 8 kts | 245° |
| 2026-05-06 17:38 | 41.80120 | 12.26275 | 23 ft | 9 kts | 289° |
| 2026-05-06 17:38 | 41.80150 | 12.26193 | 24 ft | 11 kts | 296° |
| 2026-05-06 17:38 | 41.80186 | 12.26090 | 23 ft | 13 kts | 294° |
| 2026-05-06 17:39 | 41.80219 | 12.26041 | 23 ft | 7 kts | 345° |
| 2026-05-06 17:39 | 41.80267 | 12.26063 | 25 ft | 8 kts | 32° |
| 2026-05-06 17:39 | 41.80321 | 12.26099 | 25 ft | 9 kts | 25° |
| 2026-05-06 17:39 | 41.80384 | 12.26139 | 24 ft | 10 kts | 25° |
| 2026-05-06 17:40 | 41.80450 | 12.26178 | 28 ft | 10 kts | 17° |
| 2026-05-06 17:40 | 41.80522 | 12.26166 | 28 ft | 11 kts | 341° |
| 2026-05-06 17:40 | 41.80601 | 12.26132 | 27 ft | 9 kts | 343° |
| 2026-05-06 17:40 | 41.80620 | 12.26125 | 27 ft | 0 kts | 342° |
| 2026-05-06 17:42 | 41.80621 | 12.26124 | 27 ft | 2 kts | 342° |
| 2026-05-06 17:42 | 41.80653 | 12.26111 | 27 ft | 7 kts | 342° |
| 2026-05-06 17:43 | 41.80691 | 12.26094 | 27 ft | 9 kts | 337° |
| 2026-05-06 17:43 | 41.80711 | 12.26026 | 27 ft | 10 kts | 260° |
| 2026-05-06 17:43 | 41.80693 | 12.25962 | 27 ft | 0 kts | 249° |
| 2026-05-06 17:43 | 41.80679 | 12.25915 | 26 ft | 35 kts | 248° |
| 2026-05-06 17:44 | 41.80566 | 12.25509 | 28 ft | 103 kts | 250° |
| 2026-05-06 17:44 | 41.80212 | 12.24218 | 164 ft | 171 kts | 248° |
| 2026-05-06 17:44 | 41.79704 | 12.22284 | 1532 ft | 168 kts | 244° |
| 2026-05-06 17:44 | 41.79251 | 12.20774 | 2438 ft | 181 kts | 239° |
| 2026-05-06 17:45 | 41.78413 | 12.19481 | 3287 ft | 191 kts | 214° |
| 2026-05-06 17:45 | 41.77275 | 12.18461 | 3809 ft | 203 kts | 212° |
| 2026-05-06 17:45 | 41.76129 | 12.17366 | 4014 ft | 201 kts | 212° |
| 2026-05-06 17:45 | 41.74807 | 12.16669 | 4209 ft | 218 kts | 186° |
| 2026-05-06 17:46 | 41.73184 | 12.16673 | 4817 ft | 244 kts | 178° |
| 2026-05-06 17:46 | 41.71477 | 12.16816 | 5863 ft | 247 kts | 178° |
| 2026-05-06 17:46 | 41.69726 | 12.16955 | 6811 ft | 257 kts | 179° |
| 2026-05-06 17:46 | 41.67898 | 12.17077 | 7706 ft | 266 kts | 179° |
| 2026-05-06 17:47 | 41.66052 | 12.17186 | 8708 ft | 266 kts | 179° |
| 2026-05-06 17:47 | 41.64175 | 12.17285 | 9455 ft | 273 kts | 179° |
| 2026-05-06 17:47 | 41.62287 | 12.17380 | 10251 ft | 276 kts | 180° |
| 2026-05-06 17:47 | 41.60337 | 12.17473 | 10819 ft | 286 kts | 179° |
| 2026-05-06 17:48 | 41.58315 | 12.17573 | 11441 ft | 293 kts | 179° |
| 2026-05-06 17:48 | 41.56288 | 12.17955 | 12096 ft | 299 kts | 167° |
| 2026-05-06 17:48 | 41.54363 | 12.19086 | 12797 ft | 305 kts | 150° |
| 2026-05-06 17:48 | 41.52597 | 12.20679 | 13517 ft | 308 kts | 146° |
| 2026-05-06 17:49 | 41.50860 | 12.22371 | 14089 ft | 310 kts | 146° |
| 2026-05-06 17:49 | 41.49167 | 12.24171 | 14655 ft | 315 kts | 139° |
| 2026-05-06 17:49 | 41.47829 | 12.26512 | 15255 ft | 324 kts | 120° |
| 2026-05-06 17:49 | 41.47187 | 12.29423 | 15870 ft | 335 kts | 98° |
| 2026-05-06 17:50 | 41.47445 | 12.32544 | 16444 ft | 347 kts | 74° |
| 2026-05-06 17:50 | 41.48577 | 12.35430 | 17048 ft | 356 kts | 58° |
| 2026-05-06 17:50 | 41.50040 | 12.38120 | 17622 ft | 362 kts | 53° |
| 2026-05-06 17:50 | 41.51157 | 12.39788 | 17990 ft | 366 kts | 45° |
| 2026-05-06 17:51 | 41.53940 | 12.42410 | 18612 ft | 375 kts | 27° |
| 2026-05-06 17:51 | 41.56310 | 12.43928 | 19142 ft | 378 kts | 23° |
| 2026-05-06 17:51 | 41.58714 | 12.45382 | 19712 ft | 381 kts | 22° |
| 2026-05-06 17:51 | 41.61133 | 12.46846 | 20265 ft | 383 kts | 22° |